sensor_id;sensor_type;location;lat;lon;timestamp;pressure;altitude;pressure_sealevel;temperature;humidity
62544;BME280;48597;49.030;1.822;2023-09-30T00:02:12;101855.81;;;22.06;50.97
62544;BME280;48597;49.030;1.822;2023-09-30T00:04:37;101857.88;;;22.05;50.87
62544;BME280;48597;49.030;1.822;2023-09-30T00:07:03;101866.47;;;22.05;50.88
62544;BME280;48597;49.030;1.822;2023-09-30T00:09:28;101868.53;;;22.05;50.88
62544;BME280;48597;49.030;1.822;2023-09-30T00:11:53;101877.97;;;22.05;50.84
62544;BME280;48597;49.030;1.822;2023-09-30T00:14:20;101880.03;;;22.05;50.97
62544;BME280;48597;49.030;1.822;2023-09-30T00:16:45;101876.78;;;22.03;50.86
62544;BME280;48597;49.030;1.822;2023-09-30T00:19:10;101891.94;;;22.03;50.72
62544;BME280;48597;49.030;1.822;2023-09-30T00:21:36;101901.38;;;22.04;50.72
62544;BME280;48597;49.030;1.822;2023-09-30T00:24:01;101899.75;;;22.03;50.77
62544;BME280;48597;49.030;1.822;2023-09-30T00:26:26;101896.06;;;22.02;50.85
62544;BME280;48597;49.030;1.822;2023-09-30T00:28:51;101881.72;;;22.02;50.79
62544;BME280;48597;49.030;1.822;2023-09-30T00:31:17;101875.97;;;22.02;50.68
62544;BME280;48597;49.030;1.822;2023-09-30T00:33:42;101883.78;;;22.02;50.70
62544;BME280;48597;49.030;1.822;2023-09-30T00:36:08;101879.28;;;22.01;50.80
62544;BME280;48597;49.030;1.822;2023-09-30T00:38:34;101862.06;;;22.01;50.75
62544;BME280;48597;49.030;1.822;2023-09-30T00:40:59;101859.19;;;22.01;50.44
62544;BME280;48597;49.030;1.822;2023-09-30T00:43:24;101853.44;;;22.01;50.55
62544;BME280;48597;49.030;1.822;2023-09-30T00:46:01;101839.09;;;22.01;50.46
62544;BME280;48597;49.030;1.822;2023-09-30T00:48:27;101854.69;;;22.00;50.51
62544;BME280;48597;49.030;1.822;2023-09-30T00:50:52;101883.41;;;22.00;50.67
62544;BME280;48597;49.030;1.822;2023-09-30T00:53:18;101875.19;;;21.98;50.32
62544;BME280;48597;49.030;1.822;2023-09-30T00:55:43;101878.06;;;21.98;50.71
62544;BME280;48597;49.030;1.822;2023-09-30T00:58:08;101873.16;;;21.99;50.48
62544;BME280;48597;49.030;1.822;2023-09-30T01:00:34;101874.38;;;21.98;50.39
62544;BME280;48597;49.030;1.822;2023-09-30T01:03:00;101880.94;;;21.98;50.32
62544;BME280;48597;49.030;1.822;2023-09-30T01:05:29;101878.50;;;21.97;50.54
62544;BME280;48597;49.030;1.822;2023-09-30T01:07:54;101883.00;;;21.98;50.56
62544;BME280;48597;49.030;1.822;2023-09-30T01:10:20;101889.19;;;21.96;50.21
62544;BME280;48597;49.030;1.822;2023-09-30T01:12:45;101899.84;;;21.96;50.35
62544;BME280;48597;49.030;1.822;2023-09-30T01:15:11;101888.38;;;21.96;50.53
62544;BME280;48597;49.030;1.822;2023-09-30T01:17:37;101876.88;;;21.96;50.35
62544;BME280;48597;49.030;1.822;2023-09-30T01:20:02;101875.25;;;21.95;50.23
62544;BME280;48597;49.030;1.822;2023-09-30T01:22:31;101878.94;;;21.95;50.10
62544;BME280;48597;49.030;1.822;2023-09-30T01:24:57;101866.66;;;21.95;50.43
62544;BME280;48597;49.030;1.822;2023-09-30T01:27:23;101857.22;;;21.94;50.18
62544;BME280;48597;49.030;1.822;2023-09-30T01:29:48;101848.63;;;21.94;50.07
62544;BME280;48597;49.030;1.822;2023-09-30T01:32:14;101842.09;;;21.94;50.02
62544;BME280;48597;49.030;1.822;2023-09-30T01:34:39;101842.09;;;21.94;50.02
62544;BME280;48597;49.030;1.822;2023-09-30T01:37:05;101849.91;;;21.93;50.14
62544;BME280;48597;49.030;1.822;2023-09-30T01:39:31;101854.81;;;21.93;50.16
62544;BME280;48597;49.030;1.822;2023-09-30T01:41:57;101851.16;;;21.92;50.33
62544;BME280;48597;49.030;1.822;2023-09-30T01:44:23;101846.66;;;21.91;50.16
62544;BME280;48597;49.030;1.822;2023-09-30T01:46:48;101846.66;;;21.91;49.94
62544;BME280;48597;49.030;1.822;2023-09-30T01:49:13;101847.47;;;21.92;50.21
62544;BME280;48597;49.030;1.822;2023-09-30T01:51:39;101845.84;;;21.91;50.02
62544;BME280;48597;49.030;1.822;2023-09-30T01:54:04;101861.00;;;21.91;50.05
62544;BME280;48597;49.030;1.822;2023-09-30T01:56:30;101852.84;;;21.90;50.12
62544;BME280;48597;49.030;1.822;2023-09-30T01:58:55;101849.97;;;21.90;50.27
62544;BME280;48597;49.030;1.822;2023-09-30T02:01:21;101850.78;;;21.90;49.94
62544;BME280;48597;49.030;1.822;2023-09-30T02:03:47;101847.09;;;21.90;49.92
62544;BME280;48597;49.030;1.822;2023-09-30T02:06:12;101841.34;;;21.90;50.05
62544;BME280;48597;49.030;1.822;2023-09-30T02:08:37;101840.53;;;21.89;49.84
62544;BME280;48597;49.030;1.822;2023-09-30T02:11:03;101843.41;;;21.89;49.97
62544;BME280;48597;49.030;1.822;2023-09-30T02:13:31;101839.72;;;21.89;49.86
62544;BME280;48597;49.030;1.822;2023-09-30T02:15:56;101834.00;;;21.89;50.06
62544;BME280;48597;49.030;1.822;2023-09-30T02:18:22;101833.63;;;21.87;49.96
62544;BME280;48597;49.030;1.822;2023-09-30T02:20:48;101840.16;;;21.87;49.73
62544;BME280;48597;49.030;1.822;2023-09-30T02:23:16;101839.34;;;21.87;49.71
62544;BME280;48597;49.030;1.822;2023-09-30T02:25:42;101839.34;;;21.87;49.97
62544;BME280;48597;49.030;1.822;2023-09-30T02:28:08;101844.28;;;21.86;49.78
62544;BME280;48597;49.030;1.822;2023-09-30T02:30:33;101845.09;;;21.87;49.82
62544;BME280;48597;49.030;1.822;2023-09-30T02:32:58;101837.75;;;21.86;49.95
62544;BME280;48597;49.030;1.822;2023-09-30T02:35:24;101839.78;;;21.85;49.74
62544;BME280;48597;49.030;1.822;2023-09-30T02:37:51;101851.28;;;21.85;49.64
62544;BME280;48597;49.030;1.822;2023-09-30T02:40:16;101849.22;;;21.86;49.51
62544;BME280;48597;49.030;1.822;2023-09-30T02:42:42;101856.22;;;21.85;49.78
62544;BME280;48597;49.030;1.822;2023-09-30T02:45:08;101856.22;;;21.85;49.78
62544;BME280;48597;49.030;1.822;2023-09-30T02:47:34;101869.75;;;21.84;49.81
62544;BME280;48597;49.030;1.822;2023-09-30T02:49:59;101865.25;;;21.83;49.79
62544;BME280;48597;49.030;1.822;2023-09-30T02:52:25;101869.38;;;21.82;49.73
62544;BME280;48597;49.030;1.822;2023-09-30T02:54:50;101869.38;;;21.82;49.94
62544;BME280;48597;49.030;1.822;2023-09-30T02:57:16;101860.75;;;21.82;49.91
62544;BME280;48597;49.030;1.822;2023-09-30T02:59:42;101871.44;;;21.82;49.82
62544;BME280;48597;49.030;1.822;2023-09-30T03:02:07;101867.75;;;21.81;49.65
62544;BME280;48597;49.030;1.822;2023-09-30T03:04:32;101870.63;;;21.81;49.84
62544;BME280;48597;49.030;1.822;2023-09-30T03:06:58;101879.69;;;21.80;49.62
62544;BME280;48597;49.030;1.822;2023-09-30T03:09:23;101886.25;;;21.80;49.66
62544;BME280;48597;49.030;1.822;2023-09-30T03:11:48;101889.13;;;21.80;49.56
62544;BME280;48597;49.030;1.822;2023-09-30T03:14:14;101896.09;;;21.79;49.46
62544;BME280;48597;49.030;1.822;2023-09-30T03:16:40;101900.22;;;21.78;49.53
62544;BME280;48597;49.030;1.822;2023-09-30T03:19:06;101898.59;;;21.77;49.66
62544;BME280;48597;49.030;1.822;2023-09-30T03:21:33;101890.00;;;21.77;49.54
62544;BME280;48597;49.030;1.822;2023-09-30T03:24:00;101890.00;;;21.77;49.56
62544;BME280;48597;49.030;1.822;2023-09-30T03:26:28;101888.38;;;21.76;49.64
62544;BME280;48597;49.030;1.822;2023-09-30T03:28:54;101880.56;;;21.77;49.80
62544;BME280;48597;49.030;1.822;2023-09-30T03:31:20;101876.88;;;21.76;49.65
62544;BME280;48597;49.030;1.822;2023-09-30T03:33:45;101873.22;;;21.75;49.55
62544;BME280;48597;49.030;1.822;2023-09-30T03:36:13;101876.06;;;21.75;49.65
62544;BME280;48597;49.030;1.822;2023-09-30T03:38:38;101858.47;;;21.73;49.69
62544;BME280;48597;49.030;1.822;2023-09-30T03:41:04;101860.09;;;21.74;49.49
62544;BME280;48597;49.030;1.822;2023-09-30T03:43:33;101857.25;;;21.74;49.41
62544;BME280;48597;49.030;1.822;2023-09-30T03:45:59;101857.66;;;21.73;49.61
62544;BME280;48597;49.030;1.822;2023-09-30T03:48:25;101861.34;;;21.73;49.65
62544;BME280;48597;49.030;1.822;2023-09-30T03:50:51;101845.38;;;21.72;49.49
62544;BME280;48597;49.030;1.822;2023-09-30T03:53:17;101838.84;;;21.72;49.70
62544;BME280;48597;49.030;1.822;2023-09-30T03:55:43;101833.91;;;21.72;49.38
62544;BME280;48597;49.030;1.822;2023-09-30T03:58:08;101820.81;;;21.71;49.63
62544;BME280;48597;49.030;1.822;2023-09-30T04:00:33;101815.06;;;21.71;49.48
62544;BME280;48597;49.030;1.822;2023-09-30T04:03:00;101799.09;;;21.70;49.63
62544;BME280;48597;49.030;1.822;2023-09-30T04:05:26;101802.78;;;21.71;49.28
62544;BME280;48597;49.030;1.822;2023-09-30T04:07:54;101812.63;;;21.70;49.39
62544;BME280;48597;49.030;1.822;2023-09-30T04:10:20;101812.63;;;21.70;49.50
62544;BME280;48597;49.030;1.822;2023-09-30T04:12:47;101812.63;;;21.70;49.22
62544;BME280;48597;49.030;1.822;2023-09-30T04:15:13;101805.28;;;21.69;49.43
62544;BME280;48597;49.030;1.822;2023-09-30T04:17:38;101818.03;;;21.68;49.33
62544;BME280;48597;49.030;1.822;2023-09-30T04:20:05;101831.09;;;21.69;49.23
62544;BME280;48597;49.030;1.822;2023-09-30T04:22:33;101836.03;;;21.68;49.61
62544;BME280;48597;49.030;1.822;2023-09-30T04:25:00;101841.75;;;21.68;49.22
62544;BME280;48597;49.030;1.822;2023-09-30T04:27:25;101848.78;;;21.67;49.23
62544;BME280;48597;49.030;1.822;2023-09-30T04:29:52;101831.56;;;21.67;49.52
62544;BME280;48597;49.030;1.822;2023-09-30T04:32:17;101833.63;;;21.67;49.44
62544;BME280;48597;49.030;1.822;2023-09-30T04:34:42;101827.06;;;21.66;49.32
62544;BME280;48597;49.030;1.822;2023-09-30T04:37:08;101818.47;;;21.66;49.24
62544;BME280;48597;49.030;1.822;2023-09-30T04:39:37;101828.31;;;21.65;49.29
62544;BME280;48597;49.030;1.822;2023-09-30T04:42:02;101839.81;;;21.65;49.37
62544;BME280;48597;49.030;1.822;2023-09-30T04:44:28;101848.41;;;21.65;49.13
62544;BME280;48597;49.030;1.822;2023-09-30T04:46:55;101843.09;;;21.64;49.11
62544;BME280;48597;49.030;1.822;2023-09-30T04:49:21;101841.06;;;21.64;49.38
62544;BME280;48597;49.030;1.822;2023-09-30T04:51:48;101847.22;;;21.63;49.07
62544;BME280;48597;49.030;1.822;2023-09-30T04:54:14;101838.63;;;21.63;49.25
62544;BME280;48597;49.030;1.822;2023-09-30T04:56:39;101832.06;;;21.62;49.07
62544;BME280;48597;49.030;1.822;2023-09-30T04:59:04;101841.50;;;21.63;49.26
62544;BME280;48597;49.030;1.822;2023-09-30T05:01:30;101846.41;;;21.62;49.13
62544;BME280;48597;49.030;1.822;2023-09-30T05:03:55;101849.72;;;21.61;49.12
62544;BME280;48597;49.030;1.822;2023-09-30T05:06:20;101853.41;;;21.61;49.51
62544;BME280;48597;49.030;1.822;2023-09-30T05:08:46;101850.53;;;21.61;48.98
62544;BME280;48597;49.030;1.822;2023-09-30T05:11:12;101857.50;;;21.60;49.08
62544;BME280;48597;49.030;1.822;2023-09-30T05:13:37;101867.38;;;21.59;49.25
62544;BME280;48597;49.030;1.822;2023-09-30T05:16:03;101860.38;;;21.60;49.35
62544;BME280;48597;49.030;1.822;2023-09-30T05:18:29;101855.09;;;21.59;48.94
62544;BME280;48597;49.030;1.822;2023-09-30T05:20:54;101854.28;;;21.58;48.97
62544;BME280;48597;49.030;1.822;2023-09-30T05:23:20;101862.88;;;21.58;49.00
62544;BME280;48597;49.030;1.822;2023-09-30T05:25:45;101862.88;;;21.58;49.02
62544;BME280;48597;49.030;1.822;2023-09-30T05:28:10;101844.03;;;21.57;49.13
62544;BME280;48597;49.030;1.822;2023-09-30T05:30:36;101836.25;;;21.58;49.30
62544;BME280;48597;49.030;1.822;2023-09-30T05:33:02;101828.06;;;21.56;48.99
62544;BME280;48597;49.030;1.822;2023-09-30T05:35:28;101833.81;;;21.56;49.29
62544;BME280;48597;49.030;1.822;2023-09-30T05:37:54;101830.13;;;21.56;49.16
62544;BME280;48597;49.030;1.822;2023-09-30T05:40:21;101826.44;;;21.55;49.00
62544;BME280;48597;49.030;1.822;2023-09-30T05:42:54;101810.50;;;21.54;49.00
62544;BME280;48597;49.030;1.822;2023-09-30T05:45:21;101815.78;;;21.56;49.23
62544;BME280;48597;49.030;1.822;2023-09-30T05:47:48;101822.00;;;21.54;49.16
62544;BME280;48597;49.030;1.822;2023-09-30T05:50:13;101829.78;;;21.54;49.25
62544;BME280;48597;49.030;1.822;2023-09-30T05:52:41;101836.78;;;21.53;49.22
62544;BME280;48597;49.030;1.822;2023-09-30T05:55:07;101836.78;;;21.53;49.09
62544;BME280;48597;49.030;1.822;2023-09-30T05:57:32;101835.97;;;21.52;49.16
62544;BME280;48597;49.030;1.822;2023-09-30T05:59:58;101849.06;;;21.53;49.01
62544;BME280;48597;49.030;1.822;2023-09-30T06:02:24;101842.94;;;21.51;49.03
62544;BME280;48597;49.030;1.822;2023-09-30T06:04:50;101835.16;;;21.52;49.09
62544;BME280;48597;49.030;1.822;2023-09-30T06:07:16;101823.69;;;21.52;48.96
62544;BME280;48597;49.030;1.822;2023-09-30T06:09:41;101829.41;;;21.52;49.02
62544;BME280;48597;49.030;1.822;2023-09-30T06:12:06;101835.59;;;21.50;49.11
62544;BME280;48597;49.030;1.822;2023-09-30T06:14:32;101856.47;;;21.51;48.91
62544;BME280;48597;49.030;1.822;2023-09-30T06:16:57;101857.28;;;21.51;48.83
62544;BME280;48597;49.030;1.822;2023-09-30T06:19:22;101857.28;;;21.51;49.10
62544;BME280;48597;49.030;1.822;2023-09-30T06:21:48;101856.91;;;21.49;48.86
62544;BME280;48597;49.030;1.822;2023-09-30T06:24:15;101849.13;;;21.50;49.11
62544;BME280;48597;49.030;1.822;2023-09-30T06:26:40;101836.84;;;21.49;48.68
62544;BME280;48597;49.030;1.822;2023-09-30T06:29:06;101849.13;;;21.50;49.00
62544;BME280;48597;49.030;1.822;2023-09-30T06:31:32;101854.03;;;21.49;48.87
62544;BME280;48597;49.030;1.822;2023-09-30T06:33:58;101859.78;;;21.49;49.10
62544;BME280;48597;49.030;1.822;2023-09-30T06:36:25;101853.66;;;21.47;48.72
62544;BME280;48597;49.030;1.822;2023-09-30T06:38:50;101851.59;;;21.48;48.80
62544;BME280;48597;49.030;1.822;2023-09-30T06:41:17;101854.47;;;21.48;48.81
62544;BME280;48597;49.030;1.822;2023-09-30T06:43:43;101843.81;;;21.48;48.79
62544;BME280;48597;49.030;1.822;2023-09-30T06:46:08;101852.41;;;21.48;48.72
62544;BME280;48597;49.030;1.822;2023-09-30T06:48:34;101855.72;;;21.47;48.99
62544;BME280;48597;49.030;1.822;2023-09-30T06:51:00;101853.66;;;21.47;48.65
62544;BME280;48597;49.030;1.822;2023-09-30T06:53:25;101864.31;;;21.47;48.80
62544;BME280;48597;49.030;1.822;2023-09-30T06:55:50;101857.78;;;21.46;48.65
62544;BME280;48597;49.030;1.822;2023-09-30T06:58:16;101844.25;;;21.47;48.95
62544;BME280;48597;49.030;1.822;2023-09-30T07:00:45;101851.22;;;21.46;48.79
62544;BME280;48597;49.030;1.822;2023-09-30T07:03:11;101866.38;;;21.46;48.55
62544;BME280;48597;49.030;1.822;2023-09-30T07:05:36;101862.72;;;21.46;48.65
62544;BME280;48597;49.030;1.822;2023-09-30T07:08:02;101846.31;;;21.46;48.48
62544;BME280;48597;49.030;1.822;2023-09-30T07:10:27;101857.78;;;21.46;48.69
62544;BME280;48597;49.030;1.822;2023-09-30T07:12:54;101855.72;;;21.47;48.61
62544;BME280;48597;49.030;1.822;2023-09-30T07:15:19;101856.97;;;21.46;48.65
62544;BME280;48597;49.030;1.822;2023-09-30T07:17:45;101859.41;;;21.47;48.65
62544;BME280;48597;49.030;1.822;2023-09-30T07:20:12;101859.41;;;21.47;48.83
62544;BME280;48597;49.030;1.822;2023-09-30T07:22:38;101865.16;;;21.47;48.65
62544;BME280;48597;49.030;1.822;2023-09-30T07:25:03;101857.34;;;21.48;48.56
62544;BME280;48597;49.030;1.822;2023-09-30T07:27:29;101862.66;;;21.49;48.78
62544;BME280;48597;49.030;1.822;2023-09-30T07:29:55;101860.16;;;21.51;48.58
62544;BME280;48597;49.030;1.822;2023-09-30T07:32:20;101872.00;;;21.53;48.51
62544;BME280;48597;49.030;1.822;2023-09-30T07:34:48;101862.16;;;21.54;48.51
62544;BME280;48597;49.030;1.822;2023-09-30T07:37:13;101873.97;;;21.56;48.44
62544;BME280;48597;49.030;1.822;2023-09-30T07:39:39;101869.44;;;21.59;48.67
62544;BME280;48597;49.030;1.822;2023-09-30T07:42:04;101874.72;;;21.60;48.44
62544;BME280;48597;49.030;1.822;2023-09-30T07:44:30;101876.78;;;21.60;48.36
62544;BME280;48597;49.030;1.822;2023-09-30T07:46:55;101877.97;;;21.62;48.53
62544;BME280;48597;49.030;1.822;2023-09-30T07:49:20;101875.97;;;21.59;48.31
62544;BME280;48597;49.030;1.822;2023-09-30T07:51:46;101887.06;;;21.57;48.25
62544;BME280;48597;49.030;1.822;2023-09-30T07:54:11;101881.34;;;21.57;48.55
62544;BME280;48597;49.030;1.822;2023-09-30T07:56:37;101890.75;;;21.58;48.48
62544;BME280;48597;49.030;1.822;2023-09-30T07:59:02;101889.94;;;21.57;48.53
62544;BME280;48597;49.030;1.822;2023-09-30T08:01:27;101892.00;;;21.57;48.54
62544;BME280;48597;49.030;1.822;2023-09-30T08:03:55;101900.59;;;21.57;48.60
62544;BME280;48597;49.030;1.822;2023-09-30T08:06:21;101896.94;;;21.56;48.62
62544;BME280;48597;49.030;1.822;2023-09-30T08:08:46;101895.31;;;21.55;48.87
62544;BME280;48597;49.030;1.822;2023-09-30T08:11:12;101894.88;;;21.57;48.48
62544;BME280;48597;49.030;1.822;2023-09-30T08:13:37;101894.53;;;21.55;48.85
62544;BME280;48597;49.030;1.822;2023-09-30T08:16:03;101903.47;;;21.57;49.02
62544;BME280;48597;49.030;1.822;2023-09-30T08:18:29;101910.03;;;21.57;48.85
62544;BME280;48597;49.030;1.822;2023-09-30T08:20:54;101901.00;;;21.59;48.75
62544;BME280;48597;49.030;1.822;2023-09-30T08:23:19;101903.03;;;21.58;48.86
62544;BME280;48597;49.030;1.822;2023-09-30T08:25:46;101904.66;;;21.59;48.97
62544;BME280;48597;49.030;1.822;2023-09-30T08:28:11;101908.72;;;21.62;48.63
62544;BME280;48597;49.030;1.822;2023-09-30T08:30:37;101915.72;;;21.61;48.70
62544;BME280;48597;49.030;1.822;2023-09-30T08:33:03;101920.19;;;21.62;48.58
62544;BME280;48597;49.030;1.822;2023-09-30T08:35:36;101921.00;;;21.62;48.62
62544;BME280;48597;49.030;1.822;2023-09-30T08:38:02;101919.38;;;21.61;48.94
62544;BME280;48597;49.030;1.822;2023-09-30T08:40:27;101931.69;;;21.62;48.70
62544;BME280;48597;49.030;1.822;2023-09-30T08:42:53;101926.38;;;21.60;49.07
62544;BME280;48597;49.030;1.822;2023-09-30T08:45:18;101926.38;;;21.60;48.96
62544;BME280;48597;49.030;1.822;2023-09-30T08:47:44;101916.53;;;21.61;48.98
62544;BME280;48597;49.030;1.822;2023-09-30T08:50:11;101919.38;;;21.61;48.96
62544;BME280;48597;49.030;1.822;2023-09-30T08:52:40;101918.56;;;21.61;48.66
62544;BME280;48597;49.030;1.822;2023-09-30T08:55:09;101915.28;;;21.62;48.86
62544;BME280;48597;49.030;1.822;2023-09-30T08:57:40;101912.41;;;21.62;48.67
62544;BME280;48597;49.030;1.822;2023-09-30T09:00:06;101905.84;;;21.62;48.81
62544;BME280;48597;49.030;1.822;2023-09-30T09:02:35;101901.75;;;21.63;49.03
62544;BME280;48597;49.030;1.822;2023-09-30T09:05:01;101910.34;;;21.63;48.95
62544;BME280;48597;49.030;1.822;2023-09-30T09:07:26;101909.53;;;21.62;49.27
62544;BME280;48597;49.030;1.822;2023-09-30T09:10:05;101926.31;;;21.64;48.89
62544;BME280;48597;49.030;1.822;2023-09-30T09:12:34;101930.00;;;21.64;48.98
62544;BME280;48597;49.030;1.822;2023-09-30T09:14:59;101922.63;;;21.63;48.93
62544;BME280;48597;49.030;1.822;2023-09-30T09:17:25;101929.19;;;21.64;48.84
62544;BME280;48597;49.030;1.822;2023-09-30T09:20:05;101935.72;;;21.64;49.17
62544;BME280;48597;49.030;1.822;2023-09-30T09:22:43;101939.41;;;21.65;49.18
62544;BME280;48597;49.030;1.822;2023-09-30T09:25:08;101939.41;;;21.65;49.05
62544;BME280;48597;49.030;1.822;2023-09-30T09:27:34;101936.13;;;21.66;49.13
62544;BME280;48597;49.030;1.822;2023-09-30T09:30:16;101927.50;;;21.66;49.15
62544;BME280;48597;49.030;1.822;2023-09-30T09:35:27;101917.66;;;21.67;49.07
62544;BME280;48597;49.030;1.822;2023-09-30T09:37:58;101918.47;;;21.68;49.04
62544;BME280;48597;49.030;1.822;2023-09-30T09:40:25;101913.50;;;21.68;49.12
62544;BME280;48597;49.030;1.822;2023-09-30T09:42:50;101915.94;;;21.70;49.22
62544;BME280;48597;49.030;1.822;2023-09-30T09:45:18;101903.66;;;21.69;49.15
62544;BME280;48597;49.030;1.822;2023-09-30T09:47:45;101913.06;;;21.70;49.39
62544;BME280;48597;49.030;1.822;2023-09-30T09:50:11;101912.63;;;21.71;49.26
62544;BME280;48597;49.030;1.822;2023-09-30T09:52:38;101923.31;;;21.71;49.30
62544;BME280;48597;49.030;1.822;2023-09-30T09:55:04;101928.59;;;21.72;49.27
62544;BME280;48597;49.030;1.822;2023-09-30T09:57:31;101926.53;;;21.73;49.28
62544;BME280;48597;49.030;1.822;2023-09-30T09:59:57;101932.28;;;21.73;49.54
62544;BME280;48597;49.030;1.822;2023-09-30T10:02:23;101920.81;;;21.73;49.39
62544;BME280;48597;49.030;1.822;2023-09-30T10:04:49;101915.06;;;21.73;49.25
62544;BME280;48597;49.030;1.822;2023-09-30T10:07:36;101908.91;;;21.74;49.40
62544;BME280;48597;49.030;1.822;2023-09-30T10:10:01;101906.03;;;21.74;49.35
62544;BME280;48597;49.030;1.822;2023-09-30T10:12:28;101904.78;;;21.75;49.50
62544;BME280;48597;49.030;1.822;2023-09-30T10:15:00;101902.72;;;21.76;49.49
62544;BME280;48597;49.030;1.822;2023-09-30T10:18:12;101904.78;;;21.75;49.72
62544;BME280;48597;49.030;1.822;2023-09-30T10:20:12;101892.06;;;21.77;49.51
62544;BME280;48597;49.030;1.822;2023-09-30T10:22:38;101886.31;;;21.77;49.23
62544;BME280;48597;49.030;1.822;2023-09-30T10:25:32;101890.00;;;21.77;49.30
62544;BME280;48597;49.030;1.822;2023-09-30T10:27:58;101883.81;;;21.79;49.42
62544;BME280;48597;49.030;1.822;2023-09-30T10:30:24;101886.69;;;21.79;49.54
62544;BME280;48597;49.030;1.822;2023-09-30T10:35:21;101882.56;;;21.80;49.38
62544;BME280;48597;49.030;1.822;2023-09-30T10:40:47;101875.91;;;21.83;49.58
62544;BME280;48597;49.030;1.822;2023-09-30T10:43:31;101869.38;;;21.82;49.50
62544;BME280;48597;49.030;1.822;2023-09-30T10:45:57;101865.69;;;21.82;49.74
62544;BME280;48597;49.030;1.822;2023-09-30T10:50:59;101864.00;;;21.84;49.76
62544;BME280;48597;49.030;1.822;2023-09-30T10:53:29;101854.59;;;21.84;49.47
62544;BME280;48597;49.030;1.822;2023-09-30T10:55:58;101859.06;;;21.85;49.38
62544;BME280;48597;49.030;1.822;2023-09-30T10:58:40;101861.94;;;21.85;49.51
62544;BME280;48597;49.030;1.822;2023-09-30T11:01:05;101861.50;;;21.86;49.31
62544;BME280;48597;49.030;1.822;2023-09-30T11:03:31;101862.31;;;21.87;49.84
62544;BME280;48597;49.030;1.822;2023-09-30T11:05:56;101869.69;;;21.88;49.56
62544;BME280;48597;49.030;1.822;2023-09-30T11:08:21;101869.69;;;21.88;49.73
62544;BME280;48597;49.030;1.822;2023-09-30T11:10:50;101861.88;;;21.88;49.77
62544;BME280;48597;49.030;1.822;2023-09-30T11:13:16;101847.53;;;21.88;49.78
62544;BME280;48597;49.030;1.822;2023-09-30T11:15:42;101854.09;;;21.89;49.47
62544;BME280;48597;49.030;1.822;2023-09-30T11:18:14;101855.69;;;21.90;49.48
62544;BME280;48597;49.030;1.822;2023-09-30T11:20:40;101862.25;;;21.90;49.87
62544;BME280;48597;49.030;1.822;2023-09-30T11:23:05;101859.38;;;21.90;49.67
62544;BME280;48597;49.030;1.822;2023-09-30T11:25:34;101855.25;;;21.91;49.77
62544;BME280;48597;49.030;1.822;2023-09-30T11:28:15;101862.63;;;21.92;49.76
62544;BME280;48597;49.030;1.822;2023-09-30T11:30:54;101856.06;;;21.92;49.58
62544;BME280;48597;49.030;1.822;2023-09-30T11:33:19;101849.91;;;21.93;49.66
62544;BME280;48597;49.030;1.822;2023-09-30T11:36:00;101857.22;;;21.94;49.71
62544;BME280;48597;49.030;1.822;2023-09-30T11:38:27;101849.44;;;21.95;49.47
62544;BME280;48597;49.030;1.822;2023-09-30T11:40:59;101849.44;;;21.95;49.66
62544;BME280;48597;49.030;1.822;2023-09-30T11:43:25;101845.75;;;21.94;49.47
62544;BME280;48597;49.030;1.822;2023-09-30T11:45:51;101836.69;;;21.96;49.72
62544;BME280;48597;49.030;1.822;2023-09-30T11:48:20;101834.63;;;21.96;49.73
62544;BME280;48597;49.030;1.822;2023-09-30T11:50:46;101830.50;;;21.97;49.65
62544;BME280;48597;49.030;1.822;2023-09-30T11:53:17;101827.66;;;21.97;49.46
62544;BME280;48597;49.030;1.822;2023-09-30T11:55:43;101835.00;;;21.98;49.52
62544;BME280;48597;49.030;1.822;2023-09-30T11:58:08;101832.13;;;21.98;49.93
62544;BME280;48597;49.030;1.822;2023-09-30T12:00:35;101810.00;;;21.99;49.73
62544;BME280;48597;49.030;1.822;2023-09-30T12:03:00;101797.28;;;22.00;49.85
62544;BME280;48597;49.030;1.822;2023-09-30T12:05:25;101795.22;;;22.00;49.78
62544;BME280;48597;49.030;1.822;2023-09-30T12:07:50;101790.28;;;22.01;49.67
62544;BME280;48597;49.030;1.822;2023-09-30T12:10:16;101793.97;;;22.01;49.66
62544;BME280;48597;49.030;1.822;2023-09-30T12:12:41;101793.53;;;22.03;49.85
62544;BME280;48597;49.030;1.822;2023-09-30T12:15:06;101795.59;;;22.02;49.75
62544;BME280;48597;49.030;1.822;2023-09-30T12:17:34;101796.41;;;22.03;49.83
62544;BME280;48597;49.030;1.822;2023-09-30T12:19:59;101791.03;;;22.05;49.91
62544;BME280;48597;49.030;1.822;2023-09-30T12:22:25;101788.16;;;22.05;49.89
62544;BME280;48597;49.030;1.822;2023-09-30T12:24:50;101783.22;;;22.05;49.70
62544;BME280;48597;49.030;1.822;2023-09-30T12:27:17;101768.06;;;22.05;49.59
62544;BME280;48597;49.030;1.822;2023-09-30T12:29:42;101764.75;;;22.06;49.65
62544;BME280;48597;49.030;1.822;2023-09-30T12:32:07;101766.34;;;22.07;49.53
62544;BME280;48597;49.030;1.822;2023-09-30T12:34:33;101764.28;;;22.08;49.52
62544;BME280;48597;49.030;1.822;2023-09-30T12:36:59;101760.59;;;22.07;49.72
62544;BME280;48597;49.030;1.822;2023-09-30T12:39:24;101764.28;;;22.08;49.80
62544;BME280;48597;49.030;1.822;2023-09-30T12:41:50;101762.22;;;22.08;49.72
62544;BME280;48597;49.030;1.822;2023-09-30T12:44:16;101765.88;;;22.09;49.69
62544;BME280;48597;49.030;1.822;2023-09-30T12:46:42;101753.16;;;22.10;49.73
62544;BME280;48597;49.030;1.822;2023-09-30T12:49:07;101757.66;;;22.11;49.84
62544;BME280;48597;49.030;1.822;2023-09-30T12:51:33;101769.13;;;22.11;49.62
62544;BME280;48597;49.030;1.822;2023-09-30T12:53:59;101766.25;;;22.11;49.86
62544;BME280;48597;49.030;1.822;2023-09-30T12:56:27;101768.69;;;22.13;49.55
62544;BME280;48597;49.030;1.822;2023-09-30T12:58:56;101768.25;;;22.14;49.68